Time;durP1;ratioP1;P1;durP2;ratioP2;P2;SDS_P1;SDS_P2;PMS_P1;PMS_P2;Temp;Humidity;BMP_temperature;BMP_pressure;BME280_temperature;BME280_humidity;BME280_pressure;Samples;Min_cycle;Max_cycle;Signal;HPM_P1;HPM_P2
2022/04/19 00:01:43;;;;;;;;;3.33;3.00;;;;;23.77;56.61;101245.56;5028528;28;45491;-62
2022/04/19 00:04:09;;;;;;;;;3.00;3.00;;;;;23.77;56.53;101245.56;5036108;28;45329;-63
2022/04/19 00:06:35;;;;;;;;;2.67;2.67;;;;;23.77;56.58;101242.84;5034900;28;45387;-61
2022/04/19 00:09:01;;;;;;;;;3.33;3.00;;;;;23.77;56.58;101245.56;5036287;28;45379;-62
2022/04/19 00:11:27;;;;;;;;;3.33;3.00;;;;;23.77;56.75;101239.28;5033679;28;47507;-61
2022/04/19 00:13:52;;;;;;;;;3.00;3.00;;;;;23.77;56.23;101241.97;5036049;28;54955;-61
2022/04/19 00:16:18;;;;;;;;;5.00;3.67;;;;;23.75;56.80;101238.44;5031999;28;45934;-61
2022/04/19 00:18:43;;;;;;;;;2.00;2.00;;;;;23.77;56.64;101239.28;5034900;28;45384;-62
2022/04/19 00:21:08;;;;;;;;;4.00;3.00;;;;;23.75;56.85;101241.13;5035879;28;58980;-64
2022/04/19 00:23:34;;;;;;;;;2.67;2.67;;;;;23.75;56.60;101236.63;5036336;28;58866;-61
2022/04/19 00:25:59;;;;;;;;;2.67;2.67;;;;;23.75;56.91;101241.13;5034080;28;57459;-63
2022/04/19 00:28:26;;;;;;;;;5.00;4.00;;;;;23.75;56.85;101238.44;5035762;28;51023;-63
2022/04/19 00:30:51;;;;;;;;;4.33;2.00;;;;;23.74;56.81;101237.56;5032518;28;46484;-62
2022/04/19 00:33:17;;;;;;;;;2.00;2.00;;;;;23.74;57.28;101234.00;5036484;28;45339;-61
2022/04/19 00:35:43;;;;;;;;;2.00;2.00;;;;;23.73;57.22;101233.13;5031859;28;45273;-63
2022/04/19 00:38:08;;;;;;;;;3.67;3.67;;;;;23.74;57.12;101232.16;5035262;28;45250;-63
2022/04/19 00:40:34;;;;;;;;;3.00;3.00;;;;;23.73;57.08;101226.84;5032718;28;47468;-62
2022/04/19 00:42:59;;;;;;;;;3.00;3.00;;;;;23.73;57.13;101227.72;5036319;28;45459;-63
2022/04/19 00:45:25;;;;;;;;;5.00;3.00;;;;;23.75;57.04;101224.94;5018228;28;55725;-61
2022/04/19 00:47:52;;;;;;;;;2.00;2.00;;;;;23.75;57.30;101230.34;5036101;28;45477;-62
2022/04/19 00:50:17;;;;;;;;;5.00;3.33;;;;;23.74;57.06;101234.00;5036096;28;46635;-62
2022/04/19 00:52:43;;;;;;;;;3.00;3.00;;;;;23.75;56.84;101227.66;5029146;28;48941;-63
2022/04/19 00:55:09;;;;;;;;;3.00;3.00;;;;;23.74;57.31;101225.91;5036103;28;45483;-62
2022/04/19 00:57:39;;;;;;;;;2.00;2.00;;;;;23.74;56.98;101215.13;5035345;28;45333;-62
2022/04/19 01:00:08;;;;;;;;;3.33;3.33;;;;;23.74;57.40;101217.81;5031344;28;45880;-63
2022/04/19 01:02:35;;;;;;;;;4.00;3.00;;;;;23.73;57.23;101211.53;5035597;28;45332;-64
2022/04/19 01:05:00;;;;;;;;;2.00;2.00;;;;;23.73;57.49;101225.03;5024339;28;45419;-63
2022/04/19 01:07:25;;;;;;;;;4.00;2.67;;;;;23.75;57.30;101224.94;5033873;28;45309;-62
2022/04/19 01:09:51;;;;;;;;;2.00;2.00;;;;;23.75;57.34;101215.03;5028911;28;56383;-62
2022/04/19 01:15:09;;;;;;;;;2.67;2.67;;;;;23.76;57.26;101213.25;5036087;28;45284;-61
2022/04/19 01:17:39;;;;;;;;;2.67;2.33;;;;;23.75;57.42;101214.16;5034320;28;46053;-62
2022/04/19 01:20:06;;;;;;;;;3.00;3.00;;;;;23.74;57.24;101212.41;5035925;28;47663;-61
2022/04/19 01:22:35;;;;;;;;;3.00;3.00;;;;;23.75;57.36;101208.78;5036238;28;45353;-61
2022/04/19 01:25:01;;;;;;;;;3.00;3.00;;;;;23.74;57.57;101207.03;5035796;28;45340;-63
2022/04/19 01:27:26;;;;;;;;;3.00;3.00;;;;;23.74;57.47;101209.72;5031444;28;45206;-62
2022/04/19 01:29:53;;;;;;;;;3.33;3.33;;;;;23.74;57.23;101204.31;5034505;28;59829;-63
2022/04/19 01:32:20;;;;;;;;;3.00;2.67;;;;;23.74;57.36;101205.19;5031967;28;45459;-63
2022/04/19 01:34:48;;;;;;;;;2.67;2.67;;;;;23.74;57.36;101207.03;5035934;28;45485;-62
2022/04/19 01:37:15;;;;;;;;;2.00;2.00;;;;;23.74;57.62;101202.50;5029939;28;45631;-62
2022/04/19 01:42:24;;;;;;;;;4.00;2.00;;;;;23.73;57.26;101195.38;5034826;28;45313;-64
2022/04/19 01:44:50;;;;;;;;;4.67;2.00;;;;;23.74;57.38;101198.94;5035560;28;45539;-64
2022/04/19 01:47:15;;;;;;;;;3.00;3.00;;;;;23.74;57.37;101194.41;5035327;28;45464;-62
2022/04/19 01:49:40;;;;;;;;;3.00;3.00;;;;;23.73;57.34;101207.97;5034938;28;63528;-62
2022/04/19 01:52:08;;;;;;;;;4.00;2.00;;;;;23.73;57.15;101205.28;5034281;28;60228;-61
2022/04/19 01:54:34;;;;;;;;;3.67;2.33;;;;;23.73;57.32;101205.28;5033890;28;45636;-61
2022/04/19 01:56:59;;;;;;;;;2.33;2.33;;;;;23.73;57.43;101205.28;5030071;28;45392;-62
2022/04/19 01:59:25;;;;;;;;;1.33;1.33;;;;;23.73;57.36;101205.28;5032261;28;47261;-62
2022/04/19 02:01:51;;;;;;;;;3.00;2.00;;;;;23.72;57.36;101201.69;5032161;28;45446;-61
2022/04/19 02:04:18;;;;;;;;;3.00;2.00;;;;;23.72;57.28;101206.22;5032822;28;45518;-61
2022/04/19 02:06:44;;;;;;;;;3.00;3.00;;;;;23.71;57.37;101209.84;5035339;28;45412;-60
2022/04/19 02:09:09;;;;;;;;;3.67;2.33;;;;;23.70;57.38;101203.59;5034730;28;45780;-62
2022/04/19 02:11:37;;;;;;;;;2.00;2.00;;;;;23.70;57.20;101206.28;5026388;28;45242;-62
2022/04/19 02:14:03;;;;;;;;;2.33;2.33;;;;;23.69;57.58;101204.50;5039070;28;45378;-62
2022/04/19 02:16:28;;;;;;;;;2.33;2.33;;;;;23.69;57.44;101199.09;5038541;28;45633;-62
2022/04/19 02:18:53;;;;;;;;;3.67;2.33;;;;;23.68;57.32;101202.75;5037424;28;63093;-62
2022/04/19 02:21:19;;;;;;;;;3.00;3.00;;;;;23.69;57.29;101203.63;5034424;28;60182;-62
2022/04/19 02:23:44;;;;;;;;;2.00;2.00;;;;;23.67;57.40;101205.50;5037998;28;54608;-61
2022/04/19 02:26:10;;;;;;;;;2.67;1.00;;;;;23.67;57.40;101205.50;5037591;28;49183;-63
2022/04/19 02:28:36;;;;;;;;;2.00;2.00;;;;;23.66;57.47;101201.94;5038092;28;47648;-63
2022/04/19 02:31:01;;;;;;;;;2.00;2.00;;;;;23.66;57.53;101199.22;5035679;28;57738;-62
2022/04/19 02:33:26;;;;;;;;;2.00;2.00;;;;;23.66;57.48;101193.84;5019477;28;54855;-62
2022/04/19 02:35:52;;;;;;;;;3.00;2.00;;;;;23.67;57.49;101197.41;5037619;28;47329;-60
2022/04/19 02:38:18;;;;;;;;;2.00;2.00;;;;;23.66;57.18;101198.34;5031777;28;46510;-63
2022/04/19 02:40:43;;;;;;;;;1.33;1.33;;;;;23.65;57.41;101196.56;5034901;28;45400;-62
2022/04/19 02:43:09;;;;;;;;;2.00;2.00;;;;;23.64;57.46;101194.81;5031926;28;45560;-63
2022/04/19 02:45:34;;;;;;;;;2.00;2.00;;;;;23.63;57.66;101195.75;5032788;28;45800;-62
2022/04/19 02:48:05;;;;;;;;;2.00;2.00;;;;;23.63;57.43;101193.06;5037656;28;46440;-62
2022/04/19 02:50:39;;;;;;;;;1.33;1.33;;;;;23.62;57.32;101192.16;5037901;28;45443;-62
2022/04/19 02:53:05;;;;;;;;;2.00;2.00;;;;;23.61;57.40;101190.41;5033445;28;45431;-61
2022/04/19 02:55:30;;;;;;;;;1.33;1.33;;;;;23.61;57.58;101193.09;5030943;28;45620;-62
2022/04/19 02:57:56;;;;;;;;;2.00;2.00;;;;;23.61;57.57;101187.72;5032514;28;55971;-62
2022/04/19 03:00:22;;;;;;;;;4.00;1.00;;;;;23.63;57.68;101183.16;5036775;28;45241;-62
2022/04/19 03:02:49;;;;;;;;;3.00;3.00;;;;;23.66;57.61;101176.78;5029296;28;46053;-63
2022/04/19 03:05:16;;;;;;;;;1.33;1.33;;;;;23.68;57.45;101174.91;5035481;28;45509;-62
2022/04/19 03:07:41;;;;;;;;;2.00;1.00;;;;;23.68;57.48;101174.91;5036001;28;46515;-62
2022/04/19 03:10:07;;;;;;;;;5.00;2.00;;;;;23.69;57.72;101171.25;5032593;28;45436;-62
2022/04/19 03:12:32;;;;;;;;;2.00;2.00;;;;;23.71;57.56;101175.69;5037789;28;45637;-62
2022/04/19 03:14:58;;;;;;;;;2.00;2.00;;;;;23.70;57.48;101167.63;5037215;28;53574;-61
2022/04/19 03:17:23;;;;;;;;;3.00;1.00;;;;;23.71;57.50;101172.97;5035239;28;46188;-61
2022/04/19 03:19:49;;;;;;;;;2.00;2.00;;;;;23.71;57.09;101166.72;5037420;28;45495;-60
2022/04/19 03:22:14;;;;;;;;;2.00;2.00;;;;;23.71;57.42;101178.38;5033814;28;45279;-63
2022/04/19 03:27:42;;;;;;;;;3.00;2.00;;;;;23.71;57.25;101170.28;5032718;28;45518;-62
2022/04/19 03:30:14;;;;;;;;;1.00;1.00;;;;;23.70;57.34;101165.84;5035276;28;45510;-62
2022/04/19 03:32:43;;;;;;;;;3.00;1.00;;;;;23.70;57.46;101164.94;5033847;28;45451;-61
2022/04/19 03:35:09;;;;;;;;;2.33;1.33;;;;;23.69;57.35;101166.75;5037711;28;45577;-61
2022/04/19 03:37:34;;;;;;;;;1.00;1.00;;;;;23.70;57.12;101167.63;5037341;28;47316;-61
2022/04/19 03:40:00;;;;;;;;;3.00;1.33;;;;;23.68;57.36;101166.81;5036775;28;57424;-62
2022/04/19 03:42:25;;;;;;;;;3.00;1.67;;;;;23.70;57.40;101162.22;5033704;28;45257;-61
2022/04/19 03:44:50;;;;;;;;;1.00;1.00;;;;;23.68;57.35;101161.41;5037596;28;45285;-62
2022/04/19 03:47:16;;;;;;;;;1.00;1.00;;;;;23.69;57.29;101165.88;5036610;28;61705;-62
2022/04/19 03:49:44;;;;;;;;;1.00;1.00;;;;;23.66;57.56;101156.09;5033840;28;61262;-62
2022/04/19 03:52:10;;;;;;;;;2.00;2.00;;;;;23.68;57.42;101162.31;5037500;28;45416;-63
2022/04/19 03:54:36;;;;;;;;;1.00;1.00;;;;;23.67;57.32;101152.47;5036883;28;45484;-63
2022/04/19 03:57:07;;;;;;;;;3.33;1.33;;;;;23.67;57.34;101156.97;5035499;28;46919;-63
2022/04/19 03:59:33;;;;;;;;;2.33;1.67;;;;;23.66;57.09;101155.22;5020258;28;45338;-62
2022/04/19 04:01:58;;;;;;;;;2.00;2.00;;;;;23.66;57.25;101153.41;5030533;28;45389;-62
2022/04/19 04:04:30;;;;;;;;;1.00;1.00;;;;;23.65;57.36;101145.34;5031862;28;45380;-61
2022/04/19 04:06:56;;;;;;;;;2.33;1.33;;;;;23.67;57.54;101148.88;5032662;28;47511;-61
2022/04/19 04:09:22;;;;;;;;;2.67;1.00;;;;;23.65;57.31;101153.44;5033485;28;45287;-62
2022/04/19 04:11:47;;;;;;;;;1.00;1.00;;;;;23.67;57.54;101156.97;5035700;28;56879;-62
2022/04/19 04:14:12;;;;;;;;;1.00;1.00;;;;;23.66;57.47;101164.19;5032516;28;45439;-62
2022/04/19 04:16:38;;;;;;;;;1.00;1.00;;;;;23.65;57.48;101165.13;5036544;28;55502;-62
2022/04/19 04:19:03;;;;;;;;;1.00;1.00;;;;;23.65;57.65;101158.81;5030218;28;54490;-64
2022/04/19 04:21:28;;;;;;;;;1.67;0.33;;;;;23.66;57.74;101166.00;5036102;28;54895;-62
2022/04/19 04:23:54;;;;;;;;;1.33;1.33;;;;;23.64;57.39;101154.38;5036469;28;51721;-62
2022/04/19 04:26:19;;;;;;;;;2.33;1.33;;;;;23.65;57.51;101158.81;5032910;28;47243;-62
2022/04/19 04:28:44;;;;;;;;;1.00;1.00;;;;;23.64;57.31;101157.94;5035568;28;56263;-62
2022/04/19 04:31:10;;;;;;;;;1.00;1.00;;;;;23.64;57.43;101154.38;5016337;28;51582;-61
2022/04/19 04:33:35;;;;;;;;;2.00;2.00;;;;;23.64;57.56;101159.78;5028514;28;50638;-62
2022/04/19 04:36:00;;;;;;;;;1.00;1.00;;;;;23.64;57.60;101157.94;5032046;28;46596;-64
2022/04/19 04:38:26;;;;;;;;;2.67;1.00;;;;;23.65;57.65;101158.81;5035065;28;45320;-65
2022/04/19 04:40:51;;;;;;;;;2.00;2.00;;;;;23.64;57.69;101162.47;5036280;28;48361;-64
2022/04/19 04:43:16;;;;;;;;;1.33;1.33;;;;;23.65;57.64;101166.91;5034213;28;45459;-62
2022/04/19 04:45:42;;;;;;;;;1.00;1.00;;;;;23.64;57.93;101167.84;5035121;28;58621;-64
2022/04/19 04:50:51;;;;;;;;;3.00;1.33;;;;;23.63;57.79;101169.69;5035384;28;45364;-63
2022/04/19 04:53:16;;;;;;;;;3.00;1.33;;;;;23.63;57.67;101174.19;5027655;28;45383;-64
2022/04/19 04:55:42;;;;;;;;;1.67;1.67;;;;;23.64;57.81;101178.66;5034998;28;47293;-65
2022/04/19 04:58:09;;;;;;;;;1.33;1.33;;;;;23.65;57.84;101183.09;5033246;28;45423;-62
2022/04/19 05:00:35;;;;;;;;;1.00;1.00;;;;;23.65;58.05;101177.69;5026015;28;45367;-64
2022/04/19 05:03:00;;;;;;;;;1.33;1.00;;;;;23.64;57.60;101178.66;5131589;22;46379;-66
2022/04/19 05:05:25;;;;;;;;;4.33;2.00;;;;;23.66;57.72;101187.56;5055335;28;52856;-63
2022/04/19 05:07:51;;;;;;;;;1.33;1.33;;;;;23.64;57.84;101181.34;5051831;28;45352;-64
2022/04/19 05:10:16;;;;;;;;;1.67;1.67;;;;;23.64;57.76;101174.13;5048201;28;45502;-62
2022/04/19 05:12:42;;;;;;;;;3.67;1.33;;;;;23.64;57.56;101179.53;5049446;28;46595;-63
2022/04/19 05:15:08;;;;;;;;;1.00;1.00;;;;;23.64;57.58;101176.81;5055397;28;45565;-62
2022/04/19 05:17:34;;;;;;;;;3.00;1.00;;;;;23.63;57.79;101182.28;5055707;28;45563;-62
2022/04/19 05:19:59;;;;;;;;;1.00;1.00;;;;;23.64;57.72;101184.03;5055857;28;45403;-61
2022/04/19 05:22:24;;;;;;;;;1.00;1.00;;;;;23.62;57.53;101175.97;5049899;28;45428;-61
2022/04/19 05:24:50;;;;;;;;;0.67;0.67;;;;;23.62;57.71;101183.19;5055911;28;46458;-62
2022/04/19 05:27:15;;;;;;;;;1.00;1.00;;;;;23.62;57.93;101181.38;5055118;28;45465;-62
2022/04/19 05:29:41;;;;;;;;;1.00;1.00;;;;;23.64;58.16;101178.66;5052649;28;45633;-63
2022/04/19 05:32:07;;;;;;;;;2.00;1.00;;;;;23.66;57.95;101177.66;5049303;28;45593;-62
2022/04/19 05:34:32;;;;;;;;;3.00;1.67;;;;;23.67;58.06;101170.44;5052849;28;46505;-61
2022/04/19 05:36:57;;;;;;;;;2.33;1.00;;;;;23.69;57.88;101172.13;5055229;28;45554;-62
2022/04/19 05:39:23;;;;;;;;;4.33;1.33;;;;;23.70;58.11;101181.09;5047339;28;55490;-62
2022/04/19 05:41:48;;;;;;;;;1.00;1.00;;;;;23.72;58.07;101180.13;5055506;28;45618;-62
2022/04/19 05:44:14;;;;;;;;;1.33;1.33;;;;;23.69;56.11;101177.53;5054967;28;47460;-62
2022/04/19 05:46:39;;;;;;;;;6.00;4.00;;;;;23.46;52.54;101188.28;5052004;28;45465;-65
2022/04/19 05:49:05;;;;;;;;;4.33;2.00;;;;;23.08;51.33;101187.84;5049141;28;45707;-64
2022/04/19 05:51:31;;;;;;;;;5.00;4.33;;;;;22.65;50.76;101188.41;5033534;28;45383;-64
2022/04/19 05:53:57;;;;;;;;;9.67;3.00;;;;;22.23;50.45;101183.47;5057202;28;46703;-64
2022/04/19 05:56:22;;;;;;;;;9.33;5.00;;;;;21.81;50.24;101183.84;5053150;28;45475;-61
2022/04/19 05:58:47;;;;;;;;;9.33;5.00;;;;;21.45;50.62;101191.16;5054092;28;49070;-64
2022/04/19 06:01:13;;;;;;;;;4.67;3.67;;;;;21.12;51.40;101191.13;5054035;28;55065;-62
2022/04/19 06:06:22;;;;;;;;;5.33;3.00;;;;;20.40;52.20;101200.09;5055294;28;45529;-62
2022/04/19 06:08:49;;;;;;;;;3.67;3.00;;;;;20.05;52.81;101196.41;5054463;28;45521;-61
2022/04/19 06:11:14;;;;;;;;;7.00;4.00;;;;;19.73;53.18;101191.75;5051777;28;45301;-63
2022/04/19 06:13:43;;;;;;;;;7.33;5.00;;;;;19.48;53.86;101204.72;5048575;28;47152;-62
2022/04/19 06:16:09;;;;;;;;;6.00;4.00;;;;;19.23;54.84;101211.47;5051706;28;45623;-64
2022/04/19 06:18:35;;;;;;;;;9.67;6.33;;;;;18.97;55.22;101201.25;5044974;28;45439;-63
2022/04/19 06:21:01;;;;;;;;;4.67;4.67;;;;;18.76;56.14;101203.38;5041920;28;45405;-62
2022/04/19 06:23:26;;;;;;;;;6.00;5.00;;;;;18.58;56.51;101203.63;5046488;28;46638;-64
2022/04/19 06:25:52;;;;;;;;;6.67;5.00;;;;;18.42;57.35;101204.78;5053692;28;61674;-61
2022/04/19 06:28:17;;;;;;;;;9.67;6.67;;;;;18.28;57.92;101200.53;5055762;28;45402;-62
2022/04/19 06:30:43;;;;;;;;;12.00;6.33;;;;;18.16;58.69;101207.84;5056637;28;45580;-60
2022/04/19 06:33:09;;;;;;;;;8.00;7.00;;;;;18.02;59.20;101205.38;5053789;28;46581;-65
2022/04/19 06:35:34;;;;;;;;;10.00;5.33;;;;;17.92;62.28;101201.94;5053998;28;45323;-62
2022/04/19 06:37:59;;;;;;;;;6.33;4.00;;;;;18.00;64.87;101201.81;5057717;28;59766;-62
2022/04/19 06:40:25;;;;;;;;;4.00;3.33;;;;;18.21;65.91;101197.97;5056748;28;45498;-62
2022/04/19 06:42:50;;;;;;;;;3.33;3.33;;;;;18.46;66.14;101196.69;5054816;28;46235;-63
2022/04/19 06:45:16;;;;;;;;;6.00;3.00;;;;;18.69;66.03;101196.34;5055804;28;45558;-61
2022/04/19 06:47:42;;;;;;;;;2.00;2.00;;;;;18.93;66.66;101191.50;5051552;28;45337;-62
2022/04/19 06:50:08;;;;;;;;;3.00;3.00;;;;;19.16;66.20;101186.59;5055353;28;47607;-61
2022/04/19 06:52:34;;;;;;;;;4.67;3.33;;;;;19.38;66.01;101190.63;5055759;28;47611;-62
2022/04/19 06:54:59;;;;;;;;;3.00;3.00;;;;;19.62;65.83;101180.38;5054285;28;45496;-61
2022/04/19 06:57:26;;;;;;;;;4.00;2.00;;;;;19.80;65.43;101182.66;5054854;28;45673;-62
2022/04/19 06:59:51;;;;;;;;;2.67;2.33;;;;;19.99;65.11;101191.19;5049272;28;45486;-63
2022/04/19 07:02:16;;;;;;;;;2.33;2.00;;;;;20.17;65.03;101189.88;5048116;28;64591;-61
2022/04/19 07:04:43;;;;;;;;;3.00;3.00;;;;;20.32;65.11;101189.53;5053051;28;45348;-62
2022/04/19 07:07:09;;;;;;;;;2.00;2.00;;;;;20.49;64.67;101196.34;5053236;28;45583;-61
2022/04/19 07:09:34;;;;;;;;;2.00;2.00;;;;;20.62;64.45;101190.66;5052071;28;45601;-63
2022/04/19 07:12:00;;;;;;;;;4.33;2.00;;;;;20.77;64.09;101192.03;5051733;28;46691;-63
2022/04/19 07:14:25;;;;;;;;;2.00;2.00;;;;;20.89;63.82;101189.06;5056834;28;45483;-61
2022/04/19 07:16:52;;;;;;;;;4.00;2.67;;;;;21.00;64.51;101185.22;5057598;28;56223;-62
2022/04/19 07:19:17;;;;;;;;;2.67;2.00;;;;;21.12;63.73;101192.94;5055203;28;45217;-62
2022/04/19 07:27:11;;;;;;;;;2.00;1.00;;;;;21.40;63.63;101183.22;5055573;28;45451;-61
2022/04/19 07:29:36;;;;;;;;;3.67;2.33;;;;;21.49;63.36;101184.78;5053575;28;56017;-60
2022/04/19 07:32:02;;;;;;;;;2.00;2.00;;;;;21.57;62.82;101173.78;5033702;28;46539;-60
2022/04/19 07:34:27;;;;;;;;;2.00;2.00;;;;;21.63;62.84;101181.69;5057642;28;45155;-63
2022/04/19 07:36:56;;;;;;;;;2.00;2.00;;;;;21.71;62.69;101179.66;5051597;28;45242;-62
2022/04/19 07:39:21;;;;;;;;;1.67;1.67;;;;;21.78;63.32;101183.03;5055473;28;45258;-61
2022/04/19 07:41:47;;;;;;;;;3.00;3.00;;;;;21.84;62.72;101189.13;5056310;28;47604;-63
2022/04/19 07:44:15;;;;;;;;;4.00;2.00;;;;;21.90;62.54;101186.25;5056365;28;45361;-60
2022/04/19 07:46:41;;;;;;;;;4.00;3.00;;;;;21.95;62.50;101183.44;5057192;28;45229;-63
2022/04/19 07:49:07;;;;;;;;;4.00;3.00;;;;;22.01;63.12;101182.34;5057249;28;45563;-63
2022/04/19 07:51:32;;;;;;;;;4.33;2.67;;;;;22.07;62.91;101174.97;5049846;28;62742;-62
2022/04/19 07:53:57;;;;;;;;;5.33;2.00;;;;;22.11;62.75;101163.22;5055429;28;61320;-61
2022/04/19 07:56:23;;;;;;;;;6.33;2.67;;;;;22.15;62.34;101174.75;5057611;28;45262;-61
2022/04/19 07:58:49;;;;;;;;;3.00;3.00;;;;;22.20;62.58;101175.50;5056576;28;51245;-63
2022/04/19 08:01:15;;;;;;;;;10.00;2.33;;;;;22.24;62.40;101177.16;5053835;28;46763;-62
2022/04/19 08:03:41;;;;;;;;;5.00;2.00;;;;;22.27;62.37;101174.38;5052556;28;45476;-61
2022/04/19 08:06:06;;;;;;;;;4.00;3.00;;;;;22.31;62.23;101169.78;5052521;28;52335;-62
2022/04/19 08:08:32;;;;;;;;;3.00;2.00;;;;;22.34;62.29;101175.94;5053397;28;45474;-61
2022/04/19 08:10:57;;;;;;;;;4.33;2.00;;;;;22.37;62.44;101173.16;5049461;28;46571;-63
2022/04/19 08:13:24;;;;;;;;;4.33;3.00;;;;;22.41;62.17;101179.31;5056186;28;45386;-61
2022/04/19 08:15:49;;;;;;;;;5.00;2.00;;;;;22.44;62.40;101165.75;5050869;28;45510;-61
2022/04/19 08:18:15;;;;;;;;;5.00;1.67;;;;;22.47;61.94;101171.03;5055994;28;45685;-62
2022/04/19 08:20:41;;;;;;;;;4.67;2.67;;;;;22.49;62.19;101169.19;5056918;28;47973;-61
2022/04/19 08:23:07;;;;;;;;;3.00;2.00;;;;;22.53;62.15;101169.94;5047518;28;45440;-61
2022/04/19 08:25:34;;;;;;;;;2.00;2.00;;;;;22.54;61.86;101177.13;5055397;28;45470;-63
2022/04/19 08:27:59;;;;;;;;;3.33;2.33;;;;;22.56;61.75;101168.03;5035416;28;45558;-63
2022/04/19 08:30:25;;;;;;;;;3.33;1.67;;;;;22.59;61.98;101170.66;5031373;28;51380;-62
2022/04/19 08:32:50;;;;;;;;;2.00;2.00;;;;;22.62;62.03;101164.25;5056548;28;54668;-61
2022/04/19 08:35:17;;;;;;;;;3.00;3.00;;;;;22.65;62.02;101166.88;5049830;28;46581;-61
2022/04/19 08:37:42;;;;;;;;;1.33;1.33;;;;;22.65;62.02;101161.47;5056491;28;45468;-61
2022/04/19 08:40:09;;;;;;;;;4.00;2.67;;;;;22.67;61.76;101162.31;5056551;28;46480;-62
2022/04/19 08:42:37;;;;;;;;;5.67;3.00;;;;;22.68;62.00;101164.06;5055446;28;45550;-61
2022/04/19 08:45:05;;;;;;;;;2.00;2.00;;;;;22.70;61.75;101160.41;5056342;28;45329;-63
2022/04/19 08:47:31;;;;;;;;;3.67;2.00;;;;;22.71;61.53;101156.75;5056338;28;45495;-63
2022/04/19 08:50:04;;;;;;;;;5.00;2.00;;;;;22.73;62.12;101162.09;5051492;28;47482;-61
2022/04/19 08:52:29;;;;;;;;;3.67;2.00;;;;;22.73;61.74;101156.69;5041646;28;45526;-62
2022/04/19 08:57:40;;;;;;;;;2.33;2.33;;;;;22.75;61.85;101155.72;5056614;28;45578;-61
2022/04/19 09:00:06;;;;;;;;;3.67;2.00;;;;;22.77;61.77;101160.19;5053666;28;47427;-61
2022/04/19 09:02:33;;;;;;;;;2.00;2.00;;;;;22.78;61.95;101152.03;5044238;28;45405;-61
2022/04/19 09:05:16;;;;;;;;;2.00;2.00;;;;;22.80;61.83;101146.59;5055448;28;45350;-61
2022/04/19 09:07:42;;;;;;;;;3.00;2.00;;;;;22.79;61.91;101144.84;5056913;28;45269;-63
2022/04/19 09:10:11;;;;;;;;;1.33;1.33;;;;;22.81;61.84;101141.19;5052275;28;46638;-62
2022/04/19 09:12:37;;;;;;;;;2.67;1.67;;;;;22.81;61.68;101138.47;5056256;28;45475;-61
2022/04/19 09:15:06;;;;;;;;;3.00;2.00;;;;;22.82;61.76;101142.06;5055783;28;45313;-61
2022/04/19 09:17:33;;;;;;;;;2.33;1.00;;;;;22.83;61.80;101141.13;5055396;28;45598;-61
2022/04/19 09:20:20;;;;;;;;;3.00;3.00;;;;;22.84;62.11;101138.34;5054401;28;47434;-61
2022/04/19 09:22:48;;;;;;;;;2.00;1.00;;;;;22.85;61.84;101133.84;5056100;28;45418;-62
2022/04/19 09:25:24;;;;;;;;;1.67;1.00;;;;;22.85;61.97;101132.06;5052693;28;45326;-61
2022/04/19 09:27:50;;;;;;;;;2.00;2.00;;;;;22.86;61.73;101131.13;5054632;28;45563;-61
2022/04/19 09:30:24;;;;;;;;;4.00;2.00;;;;;22.87;61.72;101129.31;5052876;28;46490;-61
2022/04/19 09:33:03;;;;;;;;;3.33;2.00;;;;;22.87;61.86;101130.19;5047348;28;45342;-62
2022/04/19 09:35:58;;;;;;;;;3.00;1.33;;;;;22.88;61.86;101134.66;5052395;28;45513;-63
2022/04/19 09:38:44;;;;;;;;;2.00;2.00;;;;;22.89;61.93;101141.81;5040900;28;45659;-63
2022/04/19 09:41:16;;;;;;;;;2.00;1.67;;;;;22.90;61.85;101126.53;5055842;28;46387;-62
2022/04/19 09:43:42;;;;;;;;;5.00;3.00;;;;;22.91;62.15;101122.94;5055765;28;45479;-61
2022/04/19 09:46:07;;;;;;;;;4.33;3.00;;;;;22.91;62.33;101123.81;5048313;28;47978;-62
2022/04/19 09:48:35;;;;;;;;;4.33;3.33;;;;;22.92;62.12;101128.25;5038263;28;45403;-61
2022/04/19 09:51:09;;;;;;;;;3.00;3.00;;;;;22.93;62.15;101124.63;5045656;28;46445;-62
2022/04/19 09:53:41;;;;;;;;;4.67;2.00;;;;;22.95;62.04;101121.84;5054583;28;45364;-61
2022/04/19 09:56:18;;;;;;;;;3.00;2.00;;;;;22.95;62.16;101125.44;5051865;28;45364;-63
2022/04/19 09:58:45;;;;;;;;;3.33;2.00;;;;;22.96;61.88;101115.56;5048106;28;45437;-63
2022/04/19 10:08:10;;;;;;;;;4.00;2.00;;;;;22.95;62.28;101109.28;5052954;28;47303;-62
2022/04/19 10:09:25;;;;;;;;;2.00;2.00;;;;;22.98;62.24;101098.41;5046170;28;45545;-62
2022/04/19 10:11:51;;;;;;;;;5.33;3.00;;;;;22.97;62.07;101102.03;5050829;28;47131;-61
2022/04/19 10:14:18;;;;;;;;;3.33;3.33;;;;;22.97;62.50;101091.25;5055308;28;45462;-63
2022/04/19 10:16:44;;;;;;;;;3.00;2.00;;;;;22.99;62.24;101085.81;5055599;28;45505;-62
2022/04/19 10:19:10;;;;;;;;;4.00;3.00;;;;;23.00;62.14;101091.13;5055684;28;45467;-63
2022/04/19 10:21:41;;;;;;;;;3.00;3.00;;;;;23.01;62.12;101089.34;5051535;28;45787;-62
2022/04/19 10:24:12;;;;;;;;;3.00;1.67;;;;;23.02;62.32;101083.03;5055560;28;45194;-62
2022/04/19 10:26:43;;;;;;;;;2.00;2.00;;;;;23.02;62.30;101085.72;5055135;28;45387;-62
2022/04/19 10:29:25;;;;;;;;;2.00;2.00;;;;;23.02;62.58;101079.44;5049548;28;45280;-62
2022/04/19 10:31:54;;;;;;;;;2.00;2.00;;;;;23.03;62.56;101074.00;5053142;28;46516;-62
2022/04/19 10:34:24;;;;;;;;;2.00;2.00;;;;;23.03;62.15;101076.69;5058459;28;45534;-61
2022/04/19 10:36:54;;;;;;;;;3.00;2.00;;;;;23.03;62.66;101078.50;5048333;28;45305;-61
2022/04/19 10:39:21;;;;;;;;;3.00;3.00;;;;;23.06;62.56;101073.00;5055374;28;45193;-62
2022/04/19 10:41:53;;;;;;;;;2.00;2.00;;;;;23.06;62.57;101073.88;5053778;28;46020;-64
2022/04/19 10:44:24;;;;;;;;;5.33;2.00;;;;;23.08;62.54;101066.63;5055219;28;45447;-64
2022/04/19 10:47:26;;;;;;;;;4.33;3.00;;;;;23.08;62.83;101063.94;5054653;28;45529;-63
2022/04/19 10:49:59;;;;;;;;;3.00;2.00;;;;;23.09;62.53;101064.81;5005033;28;45429;-65
2022/04/19 10:52:40;;;;;;;;;2.00;2.00;;;;;23.10;62.70;101069.25;5036762;28;46520;-63
2022/04/19 10:55:10;;;;;;;;;2.00;2.00;;;;;23.10;62.81;101063.88;5053451;28;45518;-63
2022/04/19 11:00:29;;;;;;;;;1.00;1.00;;;;;23.11;62.68;101054.84;5052255;28;45553;-61
2022/04/19 11:03:00;;;;;;;;;5.67;2.00;;;;;23.12;62.76;101060.19;5029922;28;46447;-63
2022/04/19 11:05:45;;;;;;;;;4.33;2.00;;;;;23.13;62.92;101059.25;5052135;28;45427;-66
2022/04/19 11:08:26;;;;;;;;;2.00;2.00;;;;;23.13;62.96;101059.25;5051458;28;45484;-65
2022/04/19 11:10:51;;;;;;;;;3.00;3.00;;;;;23.14;62.65;101052.94;5056555;28;45571;-66
2022/04/19 11:13:18;;;;;;;;;3.00;3.00;;;;;23.13;63.09;101043.09;5057455;28;47408;-64
2022/04/19 11:15:44;;;;;;;;;2.00;2.00;;;;;23.15;62.86;101051.09;5057819;28;45566;-62
2022/04/19 11:18:24;;;;;;;;;3.33;2.00;;;;;23.15;63.21;101051.97;5057796;28;45502;-63
2022/04/19 11:20:59;;;;;;;;;4.00;2.33;;;;;23.16;62.85;101045.66;5057392;28;45163;-63
2022/04/19 11:23:26;;;;;;;;;2.33;2.00;;;;;23.17;63.03;101047.44;5057625;28;47494;-63
2022/04/19 11:25:55;;;;;;;;;3.00;2.00;;;;;23.18;62.99;101045.63;5058135;28;45245;-63
2022/04/19 11:28:26;;;;;;;;;2.00;2.00;;;;;23.18;62.69;101051.00;5049986;28;45536;-61
2022/04/19 11:30:55;;;;;;;;;1.00;1.00;;;;;23.18;63.14;101042.91;5058104;28;45623;-61
2022/04/19 11:33:36;;;;;;;;;2.00;2.00;;;;;23.17;63.12;101038.44;5053328;28;46569;-61
2022/04/19 11:36:02;;;;;;;;;2.33;2.33;;;;;23.20;62.82;101038.34;5050985;28;45312;-62
2022/04/19 11:38:29;;;;;;;;;2.67;1.00;;;;;23.21;63.25;101045.47;5057492;28;45649;-62
2022/04/19 11:49:09;;;;;;;;;1.00;1.00;;;;;23.21;63.36;101043.66;5049495;28;45637;-62
2022/04/19 11:51:35;;;;;;;;;2.00;2.00;;;;;23.20;63.24;101039.22;5055132;28;45541;-61
2022/04/19 11:54:02;;;;;;;;;3.33;2.33;;;;;23.22;63.51;101041.84;5053699;28;47309;-61
2022/04/19 11:56:28;;;;;;;;;4.00;2.33;;;;;23.21;63.46;101046.34;5057293;28;45338;-61
2022/04/19 11:58:58;;;;;;;;;2.00;2.00;;;;;23.23;63.56;101040.94;5038074;28;45524;-62
2022/04/19 12:01:23;;;;;;;;;4.00;2.00;;;;;23.23;63.23;101043.63;5050931;28;45586;-61
2022/04/19 12:03:48;;;;;;;;;2.67;2.67;;;;;23.23;63.43;101041.81;5021590;28;51556;-62